Time;durP1;ratioP1;P1;durP2;ratioP2;P2;SDS_P1;SDS_P2;PMS_P1;PMS_P2;Temp;Humidity;BMP_temperature;BMP_pressure;BME280_temperature;BME280_humidity;BME280_pressure;Samples;Min_cycle;Max_cycle;Signal;HPM_P1;HPM_P2
2022/09/24 00:00:51;;;;;;;5.35;4.82;;;9.20;99.90;;;;;;5040439;28;20204;-74
2022/09/24 00:03:18;;;;;;;5.90;5.30;;;9.20;99.90;;;;;;5039539;28;20180;-74
2022/09/24 00:05:45;;;;;;;5.75;4.85;;;9.20;99.90;;;;;;5038886;28;20203;-75
2022/09/24 00:08:12;;;;;;;5.35;4.85;;;9.30;99.90;;;;;;5043877;28;20191;-75
2022/09/24 00:10:39;;;;;;;5.20;4.78;;;9.30;99.90;;;;;;5044171;28;20184;-75
2022/09/24 00:13:07;;;;;;;5.95;4.72;;;9.40;99.90;;;;;;5034727;28;20222;-75
2022/09/24 00:15:37;;;;;;;4.93;4.53;;;9.30;99.90;;;;;;5044630;28;20178;-75
2022/09/24 00:18:04;;;;;;;4.95;4.55;;;9.30;99.90;;;;;;5042671;28;20183;-75
2022/09/24 00:20:31;;;;;;;6.43;5.78;;;9.30;99.90;;;;;;5042763;28;20194;-74
2022/09/24 00:22:58;;;;;;;5.57;5.10;;;9.30;99.90;;;;;;5042211;28;20173;-74
2022/09/24 00:28:08;;;;;;;5.45;5.05;;;9.30;99.90;;;;;;5029916;28;20250;-74
2022/09/24 00:30:36;;;;;;;5.63;5.13;;;9.30;99.90;;;;;;5025721;28;20181;-74
2022/09/24 00:33:01;;;;;;;4.65;4.35;;;9.20;99.90;;;;;;5032672;28;20191;-74
2022/09/24 00:35:27;;;;;;;5.22;4.82;;;9.20;99.90;;;;;;5032308;28;20607;-74
2022/09/24 00:37:52;;;;;;;5.30;4.85;;;9.20;99.90;;;;;;5044990;28;20550;-75
2022/09/24 00:40:19;;;;;;;4.47;4.07;;;9.10;99.90;;;;;;5035319;28;20318;-74
2022/09/24 00:42:45;;;;;;;4.72;4.32;;;9.10;99.90;;;;;;5038121;28;20301;-73
2022/09/24 00:45:10;;;;;;;5.15;4.68;;;9.10;99.90;;;;;;5042465;28;20674;-74
2022/09/24 00:47:41;;;;;;;5.38;4.53;;;9.00;99.90;;;;;;5039080;28;20671;-74
2022/09/24 00:50:15;;;;;;;7.00;5.43;;;9.00;99.90;;;;;;5021631;28;20171;-74
2022/09/24 00:53:02;;;;;;;5.03;4.63;;;9.00;99.90;;;;;;5037166;28;20690;-74
2022/09/24 00:55:28;;;;;;;5.13;4.75;;;9.00;99.90;;;;;;5035701;28;20259;-74
2022/09/24 00:58:00;;;;;;;4.88;4.53;;;8.90;99.90;;;;;;5041976;28;20188;-75
2022/09/24 01:00:26;;;;;;;5.35;4.88;;;8.90;99.90;;;;;;5047504;28;20187;-75
2022/09/24 01:03:01;;;;;;;5.68;4.65;;;8.90;99.90;;;;;;5046084;28;20196;-76
2022/09/24 01:05:28;;;;;;;5.60;5.00;;;8.90;99.90;;;;;;5047784;28;20171;-75
2022/09/24 01:07:53;;;;;;;5.57;5.13;;;8.90;99.90;;;;;;5042340;28;20180;-74
2022/09/24 01:10:47;;;;;;;5.53;5.03;;;8.90;99.90;;;;;;5044853;28;20255;-74
2022/09/24 01:13:40;;;;;;;5.22;4.82;;;8.90;99.90;;;;;;5047688;28;20176;-74
2022/09/24 01:16:28;;;;;;;5.07;4.68;;;8.90;99.90;;;;;;5042622;28;20204;-74
2022/09/24 01:19:00;;;;;;;5.45;4.95;;;8.90;99.90;;;;;;5050513;28;20184;-75
2022/09/24 01:21:49;;;;;;;5.32;4.82;;;8.90;99.90;;;;;;5044265;28;20200;-74
2022/09/24 01:24:41;;;;;;;5.85;5.45;;;9.00;99.90;;;;;;5029407;28;20187;-74
2022/09/24 01:27:16;;;;;;;5.40;4.90;;;9.10;99.90;;;;;;5033662;28;20191;-74
2022/09/24 01:30:07;;;;;;;5.28;4.78;;;9.10;99.90;;;;;;5044381;28;20213;-74
2022/09/24 01:32:49;;;;;;;5.60;5.20;;;9.10;99.90;;;;;;5042314;28;20200;-74
2022/09/24 01:35:42;;;;;;;6.30;5.05;;;9.00;99.90;;;;;;5039911;28;20176;-74
2022/09/24 01:38:14;;;;;;;4.88;4.47;;;9.00;99.90;;;;;;5039812;28;20667;-74
2022/09/24 01:40:42;;;;;;;4.93;4.43;;;9.00;99.90;;;;;;5050578;28;20306;-75
2022/09/24 01:43:10;;;;;;;4.93;4.53;;;9.00;99.90;;;;;;5035725;28;20271;-75
2022/09/24 01:45:38;;;;;;;5.68;5.18;;;8.90;99.90;;;;;;5043443;28;20272;-75
2022/09/24 01:48:04;;;;;;;4.90;4.60;;;8.80;99.90;;;;;;5046645;28;20646;-75
2022/09/24 01:50:53;;;;;;;4.95;4.53;;;8.80;99.90;;;;;;5038375;28;20181;-74
2022/09/24 01:53:26;;;;;;;6.68;4.60;;;8.70;99.90;;;;;;5037707;28;20171;-74
2022/09/24 01:56:05;;;;;;;5.35;4.90;;;8.70;99.90;;;;;;5044023;28;20636;-75
2022/09/24 01:58:41;;;;;;;5.30;4.30;;;8.80;99.90;;;;;;5036524;28;20181;-74
2022/09/24 02:01:15;;;;;;;4.90;4.45;;;8.80;99.90;;;;;;5044508;28;20198;-74
2022/09/24 02:03:45;;;;;;;4.97;4.57;;;8.80;99.90;;;;;;5046337;28;20188;-74
2022/09/24 02:06:30;;;;;;;5.25;4.75;;;8.80;99.90;;;;;;5044617;28;20263;-74
2022/09/24 02:08:56;;;;;;;5.65;5.05;;;8.80;99.90;;;;;;5038728;28;20207;-75
2022/09/24 02:11:23;;;;;;;4.63;4.20;;;8.80;99.90;;;;;;5048451;28;20199;-75
2022/09/24 02:13:55;;;;;;;5.18;4.70;;;8.80;99.90;;;;;;5045264;28;20180;-75
2022/09/24 02:16:27;;;;;;;5.05;4.65;;;8.80;99.90;;;;;;5031622;28;20686;-74
2022/09/24 02:18:56;;;;;;;5.75;5.10;;;8.80;99.90;;;;;;5048655;28;20184;-74
2022/09/24 02:21:24;;;;;;;4.53;4.13;;;8.70;99.90;;;;;;5038538;28;20203;-75
2022/09/24 02:24:02;;;;;;;4.63;4.22;;;8.70;99.90;;;;;;5038761;28;20414;-74
2022/09/24 02:26:28;;;;;;;4.85;4.43;;;8.70;99.90;;;;;;5029657;28;20180;-75
2022/09/24 02:28:53;;;;;;;6.22;4.30;;;8.60;99.90;;;;;;5036044;28;20655;-73
2022/09/24 02:31:32;;;;;;;4.90;4.47;;;8.60;99.90;;;;;;5040574;28;20197;-73
2022/09/24 02:34:22;;;;;;;5.50;4.30;;;8.60;99.90;;;;;;5023690;28;20191;-74
2022/09/24 02:36:50;;;;;;;4.88;4.38;;;8.50;99.90;;;;;;5030695;28;20263;-74
2022/09/24 02:39:16;;;;;;;3.88;3.60;;;8.40;99.90;;;;;;5022623;28;20293;-74
2022/09/24 02:41:46;;;;;;;3.85;3.55;;;8.40;99.90;;;;;;5022059;28;20200;-74
2022/09/24 02:44:15;;;;;;;4.18;3.83;;;8.30;99.90;;;;;;5031663;28;20287;-73
2022/09/24 02:46:42;;;;;;;4.47;4.07;;;8.30;99.90;;;;;;5029457;28;20185;-73
2022/09/24 02:49:09;;;;;;;4.78;4.40;;;8.30;99.90;;;;;;5028418;28;20192;-73
2022/09/24 02:51:35;;;;;;;5.38;4.30;;;8.30;99.90;;;;;;5024766;28;20232;-73
2022/09/24 02:54:00;;;;;;;5.00;4.55;;;8.30;99.90;;;;;;5028975;28;20212;-73
2022/09/24 02:56:27;;;;;;;8.93;4.45;;;8.30;99.90;;;;;;5029781;28;20184;-74
2022/09/24 02:58:53;;;;;;;8.52;4.65;;;8.20;99.90;;;;;;5032733;28;20184;-74
2022/09/24 03:01:18;;;;;;;5.20;4.70;;;8.20;99.90;;;;;;5033788;28;20543;-74
2022/09/24 03:03:44;;;;;;;4.90;4.50;;;8.20;99.90;;;;;;5027645;28;20223;-74
2022/09/24 03:06:12;;;;;;;4.95;4.32;;;8.10;99.90;;;;;;5022314;28;20204;-73
2022/09/24 03:08:38;;;;;;;4.78;4.38;;;8.10;99.90;;;;;;5031557;28;20830;-76
2022/09/24 03:11:04;;;;;;;4.00;3.70;;;8.20;99.90;;;;;;5024124;28;20204;-74
2022/09/24 03:13:29;;;;;;;4.30;3.90;;;8.20;99.90;;;;;;5031698;28;20180;-74
2022/09/24 03:15:55;;;;;;;4.13;3.83;;;8.20;99.90;;;;;;5030245;28;20189;-72
2022/09/24 03:18:21;;;;;;;4.90;4.50;;;8.10;99.90;;;;;;5029085;28;20683;-72
2022/09/24 03:21:02;;;;;;;4.85;4.45;;;8.10;99.90;;;;;;5032024;28;20243;-73
2022/09/24 03:23:28;;;;;;;4.78;4.38;;;8.10;99.90;;;;;;5030216;28;20365;-72
2022/09/24 03:25:54;;;;;;;4.10;3.80;;;8.20;99.90;;;;;;5027326;28;20195;-72
2022/09/24 03:28:20;;;;;;;5.70;4.13;;;8.20;99.90;;;;;;5026191;28;20196;-72
2022/09/24 03:31:01;;;;;;;4.43;4.03;;;8.20;99.90;;;;;;5032654;28;20314;-73
2022/09/24 03:33:38;;;;;;;5.10;4.60;;;8.10;99.90;;;;;;5030506;28;20275;-74
2022/09/24 03:36:08;;;;;;;5.05;4.55;;;8.00;99.90;;;;;;5033747;28;20180;-74
2022/09/24 03:38:35;;;;;;;4.93;4.53;;;8.00;99.90;;;;;;5032091;28;20176;-75
2022/09/24 03:41:02;;;;;;;4.97;4.57;;;8.00;99.90;;;;;;5042631;28;20226;-73
2022/09/24 03:43:28;;;;;;;4.57;4.22;;;8.00;99.90;;;;;;5024575;28;20616;-72
2022/09/24 03:45:54;;;;;;;4.38;4.07;;;8.00;99.90;;;;;;5039778;28;20268;-73
2022/09/24 03:48:21;;;;;;;4.82;4.43;;;7.90;99.90;;;;;;5031615;28;20200;-72
2022/09/24 03:50:47;;;;;;;5.53;4.72;;;7.80;99.90;;;;;;5025189;28;20684;-73
2022/09/24 03:53:14;;;;;;;4.80;4.40;;;7.90;99.90;;;;;;5036505;28;20216;-73
2022/09/24 03:55:48;;;;;;;4.80;4.40;;;7.90;99.90;;;;;;5037133;28;20183;-72
2022/09/24 03:58:14;;;;;;;4.95;4.55;;;7.90;99.90;;;;;;5034284;28;20176;-73
2022/09/24 04:00:41;;;;;;;4.50;4.20;;;8.00;99.90;;;;;;5034292;28;20205;-73
2022/09/24 04:03:07;;;;;;;4.97;4.55;;;8.00;99.90;;;;;;5027796;28;20669;-73
2022/09/24 04:05:33;;;;;;;5.25;4.75;;;8.00;99.90;;;;;;5043737;28;20196;-73
2022/09/24 04:07:59;;;;;;;4.72;4.32;;;8.10;99.90;;;;;;5042700;28;20184;-72
2022/09/24 04:10:25;;;;;;;5.25;4.75;;;8.10;99.90;;;;;;5042554;28;20173;-73
2022/09/24 04:12:51;;;;;;;4.95;4.55;;;8.20;99.90;;;;;;5044389;28;20242;-73
2022/09/24 04:15:17;;;;;;;6.30;4.65;;;8.20;99.90;;;;;;5043650;28;20176;-73
2022/09/24 04:17:50;;;;;;;4.80;4.40;;;8.20;99.90;;;;;;5041251;28;20211;-72
2022/09/24 04:20:20;;;;;;;4.88;4.20;;;8.30;99.90;;;;;;5033321;28;20207;-73
2022/09/24 04:22:46;;;;;;;4.90;4.60;;;8.30;99.90;;;;;;5031278;28;20187;-72
2022/09/24 04:25:12;;;;;;;5.07;4.50;;;8.40;99.90;;;;;;5023350;28;20188;-74
2022/09/24 04:27:39;;;;;;;5.20;4.70;;;8.40;99.90;;;;;;5039483;28;20171;-74
2022/09/24 04:30:05;;;;;;;4.55;4.25;;;8.40;99.90;;;;;;5037000;28;20294;-74
2022/09/24 04:32:31;;;;;;;5.22;4.82;;;8.40;99.90;;;;;;5033722;28;20675;-75
2022/09/24 04:34:56;;;;;;;4.60;4.25;;;8.40;99.90;;;;;;5034396;28;20180;-77
2022/09/24 04:37:22;;;;;;;4.95;4.60;;;8.40;99.90;;;;;;5032460;28;20172;-74
2022/09/24 04:39:47;;;;;;;5.60;5.05;;;8.40;99.90;;;;;;5028292;28;20320;-74
2022/09/24 04:42:17;;;;;;;5.35;4.88;;;8.40;99.90;;;;;;5035650;28;20222;-75
2022/09/24 04:44:45;;;;;;;4.60;4.20;;;8.50;99.90;;;;;;5028897;28;20267;-73
2022/09/24 04:47:12;;;;;;;5.93;4.53;;;8.40;99.90;;;;;;5025020;28;20636;-75
2022/09/24 04:49:38;;;;;;;5.55;5.13;;;8.40;99.90;;;;;;5022470;28;20245;-74
2022/09/24 04:52:04;;;;;;;5.68;4.85;;;8.40;99.90;;;;;;5030674;28;20625;-75
2022/09/24 04:54:29;;;;;;;5.18;4.68;;;8.40;99.90;;;;;;5027642;28;20248;-75
2022/09/24 04:56:55;;;;;;;5.75;5.35;;;8.30;99.90;;;;;;5030404;28;20184;-75
2022/09/24 04:59:22;;;;;;;5.22;4.75;;;8.40;99.90;;;;;;5028444;28;20192;-74
2022/09/24 05:01:48;;;;;;;5.13;4.63;;;8.30;99.90;;;;;;5033087;28;20207;-74
2022/09/24 05:04:14;;;;;;;9.45;5.80;;;8.40;99.90;;;;;;5034414;28;20184;-74
2022/09/24 05:06:39;;;;;;;5.85;5.35;;;8.30;99.90;;;;;;5035597;28;20183;-74
2022/09/24 05:09:05;;;;;;;5.70;5.20;;;8.40;99.90;;;;;;5043132;28;20298;-74
2022/09/24 05:11:30;;;;;;;5.40;4.78;;;8.40;99.90;;;;;;5043211;28;20203;-74
2022/09/24 05:13:56;;;;;;;5.88;5.28;;;8.40;99.90;;;;;;5038917;28;20190;-75
2022/09/24 05:16:21;;;;;;;5.55;5.05;;;8.40;99.90;;;;;;5036504;28;20211;-75
2022/09/24 05:18:47;;;;;;;5.18;4.65;;;8.40;99.90;;;;;;5042244;28;20705;-74
2022/09/24 05:21:12;;;;;;;6.35;5.22;;;8.40;99.90;;;;;;5042621;28;20204;-74
2022/09/24 05:23:38;;;;;;;5.70;5.20;;;8.50;99.90;;;;;;5043425;28;20673;-74
2022/09/24 05:28:48;;;;;;;5.68;5.05;;;8.50;99.90;;;;;;5041922;28;20581;-74
2022/09/24 05:31:13;;;;;;;6.18;4.85;;;8.70;99.90;;;;;;5032805;28;20197;-74
2022/09/24 05:33:39;;;;;;;5.55;5.07;;;8.70;99.90;;;;;;5044438;28;20203;-73
2022/09/24 05:36:04;;;;;;;5.40;5.00;;;8.70;99.90;;;;;;5016517;28;20176;-73
2022/09/24 05:38:31;;;;;;;5.38;4.97;;;8.70;99.90;;;;;;5015889;28;20625;-74
2022/09/24 05:40:57;;;;;;;5.93;4.82;;;8.80;99.90;;;;;;5020538;28;20197;-73
2022/09/24 05:43:26;;;;;;;5.35;4.90;;;8.90;99.90;;;;;;5037215;28;20195;-73
2022/09/24 05:45:53;;;;;;;5.50;5.00;;;9.00;99.90;;;;;;5021486;28;20184;-74
2022/09/24 05:48:20;;;;;;;5.05;4.63;;;9.10;99.90;;;;;;5022015;28;20646;-74
2022/09/24 05:50:46;;;;;;;4.85;4.45;;;9.10;99.90;;;;;;5045501;28;20199;-74
2022/09/24 05:53:11;;;;;;;5.22;4.72;;;9.30;99.90;;;;;;5037943;28;20173;-73
2022/09/24 05:55:38;;;;;;;4.72;4.43;;;9.30;99.90;;;;;;5030702;28;20184;-74
2022/09/24 05:58:06;;;;;;;5.40;5.00;;;9.50;99.90;;;;;;5040971;28;20168;-74
2022/09/24 06:00:32;;;;;;;5.05;4.65;;;9.60;99.90;;;;;;5036344;28;20187;-74
2022/09/24 06:03:14;;;;;;;4.95;4.47;;;9.70;99.90;;;;;;5036448;28;20535;-74
2022/09/24 06:05:48;;;;;;;5.47;5.07;;;9.80;99.90;;;;;;5037741;28;20256;-74
2022/09/24 06:08:16;;;;;;;5.30;4.88;;;9.90;99.90;;;;;;5035200;28;20206;-73
2022/09/24 06:10:44;;;;;;;6.03;4.47;;;9.90;99.90;;;;;;5027389;28;20334;-73
2022/09/24 06:13:11;;;;;;;5.93;4.63;;;10.00;99.90;;;;;;5032274;28;20707;-74
2022/09/24 06:15:41;;;;;;;4.95;4.50;;;10.10;99.90;;;;;;5035257;28;20186;-74
2022/09/24 06:18:07;;;;;;;5.32;4.82;;;10.20;99.90;;;;;;5036303;28;20658;-75
2022/09/24 06:20:33;;;;;;;5.10;4.60;;;10.30;99.90;;;;;;5035385;28;20188;-75
2022/09/24 06:23:03;;;;;;;6.22;4.75;;;10.50;99.90;;;;;;5046979;28;20664;-77
2022/09/24 06:25:29;;;;;;;5.43;4.88;;;10.60;99.90;;;;;;5032086;28;20215;-75
2022/09/24 06:28:00;;;;;;;4.68;4.38;;;10.80;99.90;;;;;;5040711;28;20183;-74
2022/09/24 06:30:31;;;;;;;4.93;4.53;;;11.00;99.90;;;;;;5038899;28;20208;-75
2022/09/24 06:33:05;;;;;;;4.95;4.55;;;11.20;99.90;;;;;;5036711;28;20215;-77
2022/09/24 06:35:42;;;;;;;5.50;4.80;;;11.40;99.90;;;;;;5027781;28;20211;-76
2022/09/24 06:38:10;;;;;;;5.25;4.70;;;11.40;99.90;;;;;;5026830;28;20258;-76
2022/09/24 06:40:36;;;;;;;5.25;4.28;;;11.50;99.90;;;;;;5035017;28;20223;-76
2022/09/24 06:43:02;;;;;;;4.13;3.83;;;11.60;99.90;;;;;;5028933;28;20594;-76
2022/09/24 06:45:27;;;;;;;4.32;4.03;;;11.70;99.90;;;;;;5031980;28;20181;-76
2022/09/24 06:47:54;;;;;;;5.00;4.60;;;11.70;99.90;;;;;;5034498;28;20173;-76
2022/09/24 06:50:21;;;;;;;4.95;4.60;;;11.70;99.90;;;;;;5031298;28;20184;-76
2022/09/24 06:52:47;;;;;;;5.10;4.70;;;11.70;99.90;;;;;;5039435;28;20588;-76
2022/09/24 06:55:21;;;;;;;4.78;4.38;;;11.60;99.90;;;;;;5039329;28;20184;-77
2022/09/24 06:57:47;;;;;;;4.95;4.53;;;11.60;99.90;;;;;;5045144;28;20190;-75
2022/09/24 07:00:14;;;;;;;5.82;4.85;;;11.60;99.90;;;;;;5042901;28;20176;-74
2022/09/24 07:02:40;;;;;;;6.45;4.90;;;11.60;99.90;;;;;;5033907;28;20212;-74
2022/09/24 07:05:08;;;;;;;5.38;4.82;;;11.60;99.90;;;;;;5033690;28;20255;-75
2022/09/24 07:07:34;;;;;;;7.32;4.85;;;11.70;99.90;;;;;;5042131;28;20195;-76
2022/09/24 07:10:02;;;;;;;5.70;5.20;;;11.70;99.90;;;;;;5037892;28;20223;-74
2022/09/24 07:12:30;;;;;;;5.10;4.72;;;11.70;99.90;;;;;;5035500;28;20199;-75
2022/09/24 07:14:57;;;;;;;5.55;5.05;;;11.70;99.90;;;;;;5036878;28;20177;-75
2022/09/24 07:17:24;;;;;;;5.65;5.22;;;11.70;99.90;;;;;;5043580;28;20589;-74
2022/09/24 07:19:50;;;;;;;5.70;5.20;;;11.70;99.90;;;;;;5022129;28;20189;-75
2022/09/24 07:22:15;;;;;;;5.68;5.00;;;11.60;99.90;;;;;;5022791;28;20274;-74
2022/09/24 07:24:41;;;;;;;7.22;5.57;;;11.60;99.90;;;;;;5021217;28;20644;-77
2022/09/24 07:27:07;;;;;;;5.80;5.28;;;11.60;99.90;;;;;;5019069;28;20199;-74
2022/09/24 07:29:33;;;;;;;5.43;4.97;;;11.60;99.90;;;;;;5022510;28;20196;-74
2022/09/24 07:31:59;;;;;;;5.93;5.43;;;11.60;99.90;;;;;;5018294;28;20205;-75
2022/09/24 07:34:24;;;;;;;6.85;5.43;;;11.60;99.90;;;;;;5020944;28;20205;-75
2022/09/24 07:36:50;;;;;;;6.05;5.38;;;11.60;99.90;;;;;;5041388;28;20208;-75
2022/09/24 07:39:16;;;;;;;5.88;5.40;;;11.60;99.90;;;;;;5039529;28;20259;-75
2022/09/24 07:41:41;;;;;;;5.35;4.85;;;11.70;99.90;;;;;;5024925;28;20251;-76
2022/09/24 07:44:08;;;;;;;5.75;4.90;;;11.80;99.90;;;;;;5042529;28;20685;-76
2022/09/24 07:46:34;;;;;;;5.45;5.05;;;12.00;99.90;;;;;;5030830;28;20528;-75
2022/09/24 07:49:00;;;;;;;5.45;4.95;;;12.10;99.90;;;;;;5021385;28;20242;-75
2022/09/24 07:51:27;;;;;;;6.13;5.53;;;12.20;99.90;;;;;;5024203;28;20777;-75
2022/09/24 07:53:55;;;;;;;5.50;5.10;;;12.40;99.90;;;;;;5026321;28;20221;-76
2022/09/24 07:56:22;;;;;;;5.50;4.93;;;12.60;99.90;;;;;;5025433;28;20608;-76
2022/09/24 07:58:49;;;;;;;5.40;4.90;;;12.90;99.90;;;;;;5026788;28;20261;-76
2022/09/24 08:01:16;;;;;;;5.45;5.00;;;13.10;99.90;;;;;;5034139;28;20205;-75
2022/09/24 08:03:42;;;;;;;7.22;5.30;;;13.20;99.90;;;;;;5032648;28;20180;-76
2022/09/24 08:06:08;;;;;;;5.20;4.80;;;13.40;99.90;;;;;;5038920;28;20210;-76
2022/09/24 08:08:34;;;;;;;5.25;4.85;;;13.70;99.90;;;;;;5037433;28;20313;-76
2022/09/24 08:11:05;;;;;;;4.60;4.22;;;13.90;99.90;;;;;;5042246;28;20192;-77
2022/09/24 08:13:35;;;;;;;5.78;5.30;;;14.20;99.90;;;;;;5045820;28;20187;-76
2022/09/24 08:16:03;;;;;;;6.85;4.80;;;14.50;99.90;;;;;;5036131;28;20185;-76
2022/09/24 08:18:31;;;;;;;5.40;4.63;;;14.80;99.90;;;;;;5044182;28;20184;-77
2022/09/24 08:20:58;;;;;;;4.88;4.47;;;14.90;99.90;;;;;;5042170;28;20193;-77
2022/09/24 08:23:24;;;;;;;5.78;5.28;;;15.00;99.90;;;;;;5036662;28;20247;-77
2022/09/24 08:25:52;;;;;;;5.28;4.88;;;15.10;99.90;;;;;;5044270;28;20182;-78
2022/09/24 08:28:18;;;;;;;6.32;5.10;;;15.20;99.90;;;;;;5027604;28;20245;-80
2022/09/24 08:30:44;;;;;;;5.15;4.75;;;15.40;99.90;;;;;;5025749;28;20227;-75
2022/09/24 08:33:10;;;;;;;5.25;4.75;;;15.50;99.90;;;;;;5028236;28;20866;-75
2022/09/24 08:35:38;;;;;;;5.47;4.97;;;15.50;99.90;;;;;;5032366;28;20261;-76
2022/09/24 08:38:05;;;;;;;5.43;5.03;;;15.50;99.90;;;;;;5035503;28;20178;-79
2022/09/24 08:40:35;;;;;;;4.88;4.40;;;15.70;99.90;;;;;;5027590;28;20196;-77
2022/09/24 08:43:22;;;;;;;4.72;4.32;;;15.90;99.90;;;;;;5023750;28;20234;-76
2022/09/24 08:48:50;;;;;;;5.88;5.13;;;16.80;99.90;;;;;;5035158;28;20748;-75
2022/09/24 08:51:19;;;;;;;5.50;5.10;;;16.90;99.90;;;;;;5037907;28;20200;-78
2022/09/24 08:53:59;;;;;;;5.32;4.82;;;16.90;99.90;;;;;;5023837;28;20181;-77
2022/09/24 08:56:29;;;;;;;5.47;5.00;;;17.20;99.90;;;;;;5031150;28;20263;-75
2022/09/24 08:59:12;;;;;;;5.65;5.05;;;17.50;99.90;;;;;;5034102;28;20200;-75
2022/09/24 09:01:53;;;;;;;5.40;4.90;;;17.60;99.90;;;;;;5039393;28;20226;-76
2022/09/24 09:04:24;;;;;;;5.22;4.82;;;17.90;99.90;;;;;;5030083;28;20280;-77
2022/09/24 09:06:54;;;;;;;5.55;5.03;;;18.40;99.90;;;;;;5031960;28;20185;-78
2022/09/24 09:09:24;;;;;;;5.32;4.82;;;18.90;99.90;;;;;;5037215;28;20203;-77
2022/09/24 09:11:56;;;;;;;5.80;4.38;;;19.80;99.90;;;;;;5042259;28;20566;-77
2022/09/24 09:14:30;;;;;;;5.00;4.60;;;21.00;99.90;;;;;;5039635;28;20173;-77
2022/09/24 09:17:03;;;;;;;5.60;5.10;;;21.70;96.30;;;;;;5028809;28;20184;-77
2022/09/24 09:19:38;;;;;;;6.30;4.57;;;22.10;95.50;;;;;;5037672;28;20188;-78
2022/09/24 09:22:13;;;;;;;5.70;5.30;;;22.50;92.90;;;;;;5026961;28;20203;-77
2022/09/24 09:24:46;;;;;;;5.05;4.57;;;22.50;91.70;;;;;;5032731;28;20176;-77
2022/09/24 09:27:13;;;;;;;5.60;5.10;;;23.10;91.10;;;;;;5026725;28;20180;-78
2022/09/24 09:29:40;;;;;;;6.25;5.75;;;24.10;87.30;;;;;;5026792;28;20694;-77
2022/09/24 09:32:38;;;;;;;5.28;4.85;;;24.50;83.10;;;;;;5026561;28;20200;-77
2022/09/24 09:35:21;;;;;;;5.88;5.18;;;24.60;81.60;;;;;;5034973;28;20184;-76
2022/09/24 09:37:58;;;;;;;5.78;5.28;;;24.50;80.30;;;;;;5029032;28;20183;-75
2022/09/24 09:40:30;;;;;;;5.13;4.72;;;24.30;81.60;;;;;;5028764;28;20234;-75
2022/09/24 09:43:01;;;;;;;7.88;5.00;;;23.60;82.20;;;;;;5021428;28;20188;-76
2022/09/24 09:45:55;;;;;;;5.20;4.80;;;22.70;84.60;;;;;;5029706;28;20175;-76
2022/09/24 09:48:25;;;;;;;5.00;4.70;;;22.20;86.20;;;;;;5022579;28;20201;-76
2022/09/24 09:50:58;;;;;;;5.55;5.15;;;21.80;89.30;;;;;;5031722;28;20319;-76
2022/09/24 09:53:30;;;;;;;6.38;4.72;;;21.50;90.40;;;;;;5030640;28;20168;-77
2022/09/24 09:55:58;;;;;;;4.95;4.65;;;21.30;90.50;;;;;;5034460;28;20183;-76
2022/09/24 09:58:27;;;;;;;5.97;5.38;;;21.10;91.90;;;;;;5032482;28;20189;-74
2022/09/24 10:01:06;;;;;;;5.65;5.25;;;20.80;91.60;;;;;;5029219;28;20204;-77
2022/09/24 10:03:45;;;;;;;5.80;5.18;;;20.50;92.40;;;;;;5028444;28;20256;-74
2022/09/24 10:06:26;;;;;;;6.53;5.50;;;20.70;93.00;;;;;;5049917;28;20302;-75
2022/09/24 10:08:52;;;;;;;5.63;5.22;;;20.70;92.40;;;;;;5016505;28;20212;-74
2022/09/24 10:11:18;;;;;;;6.50;5.97;;;20.60;93.20;;;;;;5031205;28;20235;-75
2022/09/24 10:13:44;;;;;;;5.20;4.88;;;20.60;93.10;;;;;;5038407;28;20221;-77
2022/09/24 10:16:14;;;;;;;6.13;5.60;;;20.80;92.90;;;;;;5039944;28;20172;-76
2022/09/24 10:18:48;;;;;;;5.03;4.72;;;20.80;93.30;;;;;;5033988;28;20560;-76
2022/09/24 10:21:35;;;;;;;5.68;5.13;;;20.90;92.40;;;;;;5035633;28;20639;-76
2022/09/24 10:24:02;;;;;;;6.90;6.03;;;20.80;92.90;;;;;;5037813;28;20187;-76
2022/09/24 10:26:43;;;;;;;5.50;5.00;;;20.40;93.60;;;;;;5034107;28;20640;-77
2022/09/24 10:32:16;;;;;;;6.03;5.53;;;19.90;94.80;;;;;;5028128;28;20238;-78
2022/09/24 10:34:42;;;;;;;6.68;6.18;;;19.70;96.00;;;;;;5036337;28;20268;-80
2022/09/24 10:37:15;;;;;;;6.50;5.90;;;19.50;96.30;;;;;;5042233;28;20281;-79
2022/09/24 10:39:41;;;;;;;6.43;5.80;;;19.40;96.50;;;;;;5052581;28;20211;-77
2022/09/24 10:42:33;;;;;;;6.65;6.07;;;19.20;97.40;;;;;;5051289;28;20188;-77
2022/09/24 10:45:00;;;;;;;6.50;5.90;;;19.00;97.50;;;;;;5036949;28;20280;-81
2022/09/24 10:47:55;;;;;;;6.63;5.97;;;18.90;98.20;;;;;;5035780;28;20184;-76
2022/09/24 10:50:30;;;;;;;8.38;6.70;;;18.80;98.60;;;;;;5031384;28;20232;-77
2022/09/24 10:53:26;;;;;;;7.05;6.53;;;18.50;99.90;;;;;;5039877;28;20180;-76
2022/09/24 10:55:59;;;;;;;6.55;6.05;;;18.40;99.90;;;;;;5045749;28;20185;-77
2022/09/24 10:58:46;;;;;;;6.63;6.13;;;18.40;99.90;;;;;;5038469;28;20188;-77
2022/09/24 11:01:34;;;;;;;6.63;6.13;;;18.30;99.90;;;;;;5036596;28;20204;-77
2022/09/24 11:04:25;;;;;;;6.65;6.15;;;18.30;99.90;;;;;;5040285;28;20176;-79
2022/09/24 11:06:56;;;;;;;6.10;5.50;;;18.40;99.90;;;;;;5039092;28;20666;-76
2022/09/24 11:09:28;;;;;;;6.57;6.00;;;18.60;99.90;;;;;;5030659;28;20212;-76
2022/09/24 11:12:29;;;;;;;6.43;5.93;;;18.90;99.90;;;;;;5033219;28;20227;-77
2022/09/24 11:15:07;;;;;;;6.68;6.07;;;19.10;99.90;;;;;;5034023;28;20618;-78
2022/09/24 11:17:38;;;;;;;6.45;5.85;;;19.20;99.90;;;;;;5030529;28;20171;-81
2022/09/24 11:20:29;;;;;;;6.30;5.72;;;19.20;99.90;;;;;;5048357;28;20185;-80
2022/09/24 11:23:09;;;;;;;6.82;6.22;;;19.00;99.90;;;;;;5041789;28;20255;-80
2022/09/24 11:25:49;;;;;;;7.53;6.82;;;18.80;99.90;;;;;;5052374;28;20184;-81
2022/09/24 11:28:21;;;;;;;8.05;6.40;;;18.60;99.90;;;;;;5046438;28;20175;-81
2022/09/24 11:31:28;;;;;;;6.80;6.20;;;18.40;99.90;;;;;;5047389;28;20220;-80
2022/09/24 11:34:18;;;;;;;8.15;6.82;;;18.20;99.90;;;;;;5044310;28;20215;-81
2022/09/24 11:37:04;;;;;;;7.88;6.97;;;18.10;99.90;;;;;;5048879;28;20191;-81
2022/09/24 11:39:50;;;;;;;6.68;6.05;;;18.00;99.90;;;;;;5051591;28;20188;-80
2022/09/24 11:42:48;;;;;;;8.40;7.10;;;17.90;99.90;;;;;;5047128;28;20230;-81
2022/09/24 11:45:40;;;;;;;7.90;7.20;;;17.80;99.90;;;;;;5053141;28;20201;-81
2022/09/24 11:48:27;;;;;;;7.60;6.93;;;17.40;99.90;;;;;;5055610;28;20149;-82
2022/09/24 11:51:18;;;;;;;6.70;6.20;;;17.30;99.90;;;;;;5050021;28;20287;-82
2022/09/24 11:53:59;;;;;;;7.85;7.15;;;17.10;99.90;;;;;;5048650;28;20169;-81
2022/09/24 11:56:35;;;;;;;7.53;6.93;;;16.90;99.90;;;;;;5054362;28;20175;-80
2022/09/24 11:59:12;;;;;;;8.07;7.20;;;16.70;99.90;;;;;;5050190;28;20190;-79
2022/09/24 12:01:46;;;;;;;8.38;7.65;;;16.60;99.90;;;;;;5054223;28;20686;-83
2022/09/24 12:04:18;;;;;;;8.00;7.30;;;16.50;99.90;;;;;;5050718;28;20172;-78
2022/09/24 12:07:04;;;;;;;7.85;7.10;;;16.40;99.90;;;;;;5054961;28;20184;-79
2022/09/24 12:09:40;;;;;;;7.88;7.25;;;16.40;99.90;;;;;;5060569;28;20271;-78
2022/09/24 12:12:11;;;;;;;9.30;8.40;;;16.40;99.90;;;;;;5050623;28;20195;-80
2022/09/24 12:14:49;;;;;;;8.73;8.00;;;16.50;99.90;;;;;;5050578;28;20188;-79
2022/09/24 12:17:38;;;;;;;9.40;8.52;;;16.30;99.90;;;;;;5046507;28;20180;-79
2022/09/24 12:20:27;;;;;;;11.02;8.25;;;16.10;99.90;;;;;;5052899;28;20252;-78
2022/09/24 12:23:00;;;;;;;9.20;8.40;;;16.10;99.90;;;;;;5037356;28;20540;-78
2022/09/24 12:25:31;;;;;;;10.27;9.00;;;16.10;99.90;;;;;;5043538;28;20184;-77
2022/09/24 12:27:57;;;;;;;10.20;9.30;;;16.10;99.90;;;;;;5039069;28;20181;-77
2022/09/24 12:33:38;;;;;;;11.10;10.00;;;16.20;99.90;;;;;;5038086;28;20207;-79
2022/09/24 12:36:18;;;;;;;9.77;8.98;;;16.10;99.90;;;;;;5040011;28;20176;-80
2022/09/24 12:38:52;;;;;;;11.23;10.02;;;16.10;99.90;;;;;;5054120;28;20282;-78
2022/09/24 12:41:34;;;;;;;12.52;10.25;;;16.20;99.90;;;;;;5047303;28;20629;-79
2022/09/24 12:43:59;;;;;;;10.07;9.20;;;16.40;99.90;;;;;;5044265;28;20651;-77
2022/09/24 12:46:41;;;;;;;11.18;9.98;;;16.60;99.90;;;;;;5024515;28;20230;-77
2022/09/24 12:49:25;;;;;;;11.02;9.93;;;16.80;99.90;;;;;;5035399;28;20200;-77
2022/09/24 12:51:53;;;;;;;10.40;9.50;;;16.80;99.90;;;;;;5043769;28;20236;-78
2022/09/24 12:54:31;;;;;;;10.75;9.60;;;17.00;99.90;;;;;;5037045;28;20176;-78
2022/09/24 12:57:15;;;;;;;11.20;9.70;;;17.30;99.90;;;;;;5030099;28;20176;-81
2022/09/24 12:59:54;;;;;;;11.77;10.20;;;17.40;99.90;;;;;;5030602;28;20251;-78
2022/09/24 13:02:28;;;;;;;11.32;10.25;;;17.30;99.90;;;;;;5035227;28;20196;-78
2022/09/24 13:05:00;;;;;;;10.40;9.50;;;17.30;99.90;;;;;;5038084;28;20181;-78
2022/09/24 13:07:38;;;;;;;10.77;9.85;;;17.20;99.90;;;;;;5040671;28;20184;-76
2022/09/24 13:10:15;;;;;;;12.40;10.40;;;17.20;99.90;;;;;;5042507;28;20240;-77
2022/09/24 13:12:42;;;;;;;10.35;9.35;;;17.20;99.90;;;;;;5034100;28;20311;-77
2022/09/24 13:15:30;;;;;;;11.20;9.98;;;17.40;99.90;;;;;;5027525;28;20589;-78
2022/09/24 13:18:21;;;;;;;11.40;10.40;;;17.30;99.90;;;;;;5027147;28;20191;-77
2022/09/24 13:20:59;;;;;;;10.02;9.13;;;17.40;99.90;;;;;;5026335;28;20199;-77
2022/09/24 13:23:24;;;;;;;10.55;9.65;;;17.40;99.90;;;;;;5031256;28;20222;-77
2022/09/24 13:26:01;;;;;;;10.48;9.43;;;17.20;99.90;;;;;;5031523;28;20181;-78
2022/09/24 13:28:29;;;;;;;11.15;10.05;;;17.00;99.90;;;;;;5023372;28;20197;-77